| time (UTC) | temp F | wind direction | speed MPH | gust MPH | rain 1hr in | rain 24hr in | rain mn in | humidity % | barometer mb |
| 20260906234523 | 65 | 338 | 6.0 | 11.0 | 0.00 | 0.18 | 0.03 | 69 | 1015.7 |
| 20260906233023 | 64 | 304 | 4.0 | 11.0 | 0.00 | 0.18 | 0.03 | 70 | 1015.8 |
| 20260906231539 | 63 | 303 | 5.0 | 12.0 | 0.00 | 0.18 | 0.03 | 72 | 1015.8 |
| 20260906230027 | 63 | 329 | 8.0 | 11.0 | 0.00 | 0.18 | 0.03 | 73 | 1016.1 |
| 20260906224527 | 62 | 303 | 8.0 | 11.0 | 0.00 | 0.18 | 0.03 | 75 | 1016.1 |
| 20260906223029 | 62 | 294 | 8.0 | 11.0 | 0.00 | 0.18 | 0.03 | 75 | 1016.4 |
| 20260906221540 | 62 | 263 | 9.0 | 12.0 | 0.00 | 0.18 | 0.03 | 77 | 1016.5 |
| 20260906220058 | 62 | 270 | 8.0 | 10.0 | 0.00 | 0.18 | 0.03 | 79 | 1016.5 |
| 20260906214537 | 62 | 286 | 6.0 | 9.0 | 0.00 | 0.18 | 0.03 | 80 | 1016.5 |
| 20260906213036 | 62 | 261 | 5.0 | 7.0 | 0.00 | 0.18 | 0.03 | 79 | 1016.5 |
| 20260906211509 | 63 | 260 | 1.0 | 3.0 | 0.00 | 0.18 | 0.03 | 74 | 1016.5 |
| 20260906210008 | 63 | 61 | 3.0 | 6.0 | 0.00 | 0.18 | 0.03 | 74 | 1016.4 |
| 20260906204508 | 63 | 46 | 4.0 | 7.0 | 0.00 | 0.18 | 0.03 | 75 | 1016.4 |
| 20260906203010 | 63 | 75 | 5.0 | 8.0 | 0.00 | 0.18 | 0.03 | 74 | 1016.5 |
| 20260906201511 | 63 | 80 | 5.0 | 8.0 | 0.00 | 0.18 | 0.03 | 73 | 1016.6 |
| 20260906200028 | 62 | 298 | 1.0 | 2.0 | 0.00 | 0.18 | 0.03 | 78 | 1016.6 |
| 20260906194515 | 61 | 298 | 0.0 | 1.0 | 0.00 | 0.18 | 0.03 | 79 | 1016.6 |
| 20260906193017 | 61 | 298 | 0.0 | 3.0 | 0.00 | 0.18 | 0.03 | 80 | 1016.8 |
| 20260906191519 | 61 | 346 | 2.0 | 5.0 | 0.00 | 0.18 | 0.03 | 81 | 1017.0 |
| 20260906190020 | 61 | 352 | 3.0 | 6.0 | 0.00 | 0.18 | 0.03 | 81 | 1017.0 |
| 20260906184520 | 60 | 30 | 4.0 | 9.0 | 0.00 | 0.18 | 0.03 | 84 | 1017.0 |
| 20260906183035 | 60 | 70 | 4.0 | 13.0 | 0.00 | 0.18 | 0.03 | 84 | 1016.9 |
| 20260906181530 | 60 | 56 | 5.0 | 13.0 | 0.00 | 0.18 | 0.03 | 85 | 1017.1 |
| 20260906180037 | 59 | 36 | 7.0 | 11.0 | 0.01 | 0.18 | 0.03 | 89 | 1017.2 |
| 20260906174535 | 58 | 51 | 4.0 | 12.0 | 0.01 | 0.18 | 0.03 | 91 | 1017.4 |
| 20260906173026 | 57 | 5 | 7.0 | 15.0 | 0.01 | 0.18 | 0.03 | 93 | 1017.5 |
| 20260906171531 | 55 | 12 | 7.0 | 13.0 | 0.01 | 0.18 | 0.03 | 92 | 1017.8 |
| 20260906170028 | 54 | 326 | 9.0 | 13.0 | 0.00 | 0.17 | 0.02 | 91 | 1018.8 |
| 20260906164540 | 54 | 306 | 10.0 | 12.0 | 0.00 | 0.17 | 0.02 | 91 | 1019.0 |
| 20260906163038 | 54 | 287 | 6.0 | 9.0 | 0.00 | 0.17 | 0.02 | 91 | 1019.2 |
| 20260906161529 | 54 | 300 | 6.0 | 10.0 | 0.00 | 0.17 | 0.02 | 91 | 1018.9 |
| 20260906160045 | 54 | 325 | 6.0 | 10.0 | 0.00 | 0.17 | 0.02 | 91 | 1018.8 |
| 20260906154534 | 53 | 323 | 8.0 | 11.0 | 0.00 | 0.17 | 0.02 | 91 | 1019.1 |
| 20260906153042 | 53 | 311 | 8.0 | 15.0 | 0.01 | 0.17 | 0.02 | 90 | 1019.4 |
| 20260906151534 | 53 | 327 | 9.0 | 12.0 | 0.02 | 0.17 | 0.02 | 89 | 1019.5 |
| 20260906150051 | 53 | 321 | 12.0 | 17.0 | 0.02 | 0.17 | 0.02 | 90 | 1019.4 |
| 20260906144537 | 53 | 310 | 13.0 | 17.0 | 0.02 | 0.17 | 0.02 | 90 | 1019.6 |
| 20260906143037 | 53 | 309 | 15.0 | 23.0 | 0.01 | 0.16 | 0.01 | 90 | 1019.9 |
| 20260906141532 | 54 | 281 | 15.0 | 21.0 | 0.00 | 0.15 | 0.00 | 88 | 1019.9 |
| 20260906140021 | 56 | 299 | 13.0 | 16.0 | 0.00 | 0.15 | 0.00 | 84 | 1019.6 |
| 20260906134521 | 57 | 331 | 0.0 | 3.0 | 0.00 | 0.15 | 0.00 | 84 | 1019.4 |
| 20260906133023 | 57 | 316 | 4.0 | 5.0 | 0.00 | 0.17 | 0.00 | 82 | 1019.0 |
| 20260906131529 | 57 | 352 | 3.0 | 7.0 | 0.00 | 0.21 | 0.00 | 84 | 1018.9 |
| 20260906130035 | 56 | 16 | 5.0 | 8.0 | 0.00 | 0.22 | 0.00 | 84 | 1019.1 |
| 20260906124526 | 56 | 316 | 8.0 | 12.0 | 0.00 | 0.22 | 0.00 | 84 | 1019.4 |
| 20260906123031 | 56 | 323 | 6.0 | 10.0 | 0.00 | 0.22 | 0.00 | 85 | 1019.5 |
| 20260906121527 | 57 | 327 | 10.0 | 13.0 | 0.00 | 0.22 | 0.00 | 84 | 1019.3 |
| 20260906120030 | 57 | 37 | 11.0 | 16.0 | 0.00 | 0.22 | 0.00 | 85 | 1018.4 |
| 20260906114537 | 57 | 25 | 7.0 | 13.0 | 0.00 | 0.22 | 0.00 | 83 | 1018.9 |
| 20260906113030 | 57 | 5 | 6.0 | 11.0 | 0.00 | 0.22 | 0.00 | 82 | 1019.2 |
| 20260906111533 | 57 | 18 | 5.0 | 12.0 | 0.00 | 0.22 | 0.00 | 83 | 1019.3 |
| 20260906110040 | 57 | 31 | 6.0 | 12.0 | 0.00 | 0.22 | 0.00 | 83 | 1019.2 |
| 20260906104530 | 57 | 15 | 6.0 | 14.0 | 0.00 | 0.22 | 0.00 | 82 | 1019.2 |
| 20260906103032 | 57 | 65 | 6.0 | 10.0 | 0.00 | 0.22 | 0.00 | 84 | 1019.3 |
| 20260906101506 | 56 | 24 | 6.0 | 11.0 | 0.00 | 0.22 | 0.00 | 85 | 1019.3 |
| 20260906100007 | 56 | 30 | 7.0 | 16.0 | 0.00 | 0.22 | 0.00 | 86 | 1019.0 |
| 20260906094518 | 56 | 5 | 9.0 | 15.0 | 0.00 | 0.22 | 0.00 | 87 | 1019.2 |
| 20260906093010 | 56 | 350 | 10.0 | 16.0 | 0.00 | 0.22 | 0.00 | 87 | 1019.0 |
| 20260906091510 | 56 | 31 | 12.0 | 19.0 | 0.00 | 0.22 | 0.00 | 86 | 1019.0 |
| 20260906090012 | 56 | 14 | 10.0 | 14.0 | 0.00 | 0.22 | 0.00 | 87 | 1019.4 |
| 20260906084510 | 56 | 317 | 12.0 | 16.0 | 0.00 | 0.22 | 0.00 | 85 | 1019.9 |
| 20260906083012 | 57 | 319 | 8.0 | 12.0 | 0.00 | 0.22 | 0.00 | 86 | 1020.3 |
| 20260906081534 | 55 | 337 | 8.0 | 14.0 | 0.00 | 0.22 | 0.00 | 87 | 1020.3 |
| 20260906080012 | 56 | 308 | 9.0 | 11.0 | 0.00 | 0.22 | 0.00 | 87 | 1020.5 |
| 20260906074513 | 56 | 298 | 5.0 | 10.0 | 0.00 | 0.22 | 0.00 | 86 | 1020.3 |
| 20260906073017 | 56 | 5 | 7.0 | 11.0 | 0.00 | 0.22 | 0.00 | 86 | 1020.3 |
| 20260906071514 | 56 | 12 | 5.0 | 12.0 | 0.00 | 0.22 | 0.00 | 86 | 1020.3 |
| 20260906070003 | 56 | 344 | 10.0 | 16.0 | 0.00 | 0.22 | 0.00 | 86 | 1020.2 |
| 20260906064506 | 56 | 344 | 10.0 | 14.0 | 0.00 | 0.22 | 0.00 | 85 | 1020.2 |
| 20260906063008 | 56 | 360 | 13.0 | 18.0 | 0.00 | 0.22 | 0.00 | 83 | 1020.6 |
| 20260906061509 | 57 | 5 | 12.0 | 19.0 | 0.00 | 0.22 | 0.00 | 80 | 1020.9 |
| 20260906060010 | 56 | 286 | 10.0 | 14.0 | 0.00 | 0.22 | 0.00 | 87 | 1021.3 |
| 20260906054511 | 56 | 328 | 6.0 | 12.0 | 0.00 | 0.22 | 0.22 | 86 | 1020.9 |
| 20260906053015 | 55 | 340 | 9.0 | 12.0 | 0.00 | 0.22 | 0.22 | 88 | 1020.5 |
| 20260906051513 | 55 | 330 | 8.0 | 11.0 | 0.00 | 0.22 | 0.22 | 88 | 1020.3 |
| 20260906050013 | 55 | 336 | 7.0 | 12.0 | 0.00 | 0.22 | 0.22 | 87 | 1020.4 |
| 20260906044514 | 56 | 321 | 6.0 | 10.0 | 0.00 | 0.22 | 0.22 | 86 | 1020.5 |
| 20260906043018 | 56 | 350 | 9.0 | 14.0 | 0.01 | 0.22 | 0.22 | 86 | 1020.1 |
| 20260906041520 | 56 | 351 | 10.0 | 17.0 | 0.01 | 0.22 | 0.22 | 86 | 1019.8 |
| 20260906040024 | 56 | 343 | 11.0 | 19.0 | 0.15 | 0.22 | 0.22 | 86 | 1019.2 |
| 20260906034524 | 56 | 329 | 11.0 | 16.0 | 0.15 | 0.22 | 0.22 | 84 | 1019.5 |
| 20260906033024 | 57 | 352 | 10.0 | 14.0 | 0.14 | 0.21 | 0.21 | 83 | 1019.7 |
| 20260906031540 | 58 | 321 | 9.0 | 11.0 | 0.14 | 0.21 | 0.21 | 78 | 1020.6 |
| 20260906030025 | 61 | 178 | 11.0 | 14.0 | 0.00 | 0.07 | 0.07 | 68 | 1021.5 |
| 20260906024525 | 61 | 328 | 7.0 | 14.0 | 0.00 | 0.07 | 0.07 | 66 | 1019.1 |
| 20260906023025 | 60 | 9 | 3.0 | 10.0 | 0.00 | 0.07 | 0.07 | 68 | 1018.4 |
| 20260906021526 | 61 | 350 | 6.0 | 11.0 | 0.00 | 0.07 | 0.07 | 67 | 1018.3 |
| 20260906020031 | 61 | 346 | 6.0 | 9.0 | 0.00 | 0.07 | 0.07 | 66 | 1018.4 |
| 20260906014533 | 62 | 340 | 7.0 | 12.0 | 0.00 | 0.07 | 0.07 | 64 | 1018.3 |
| 20260906013025 | 63 | 344 | 8.0 | 12.0 | 0.00 | 0.07 | 0.07 | 63 | 1018.4 |
| 20260906011512 | 64 | 342 | 7.0 | 14.0 | 0.00 | 0.07 | 0.07 | 61 | 1018.5 |
| 20260906010010 | 65 | 9 | 7.0 | 14.0 | 0.00 | 0.07 | 0.07 | 57 | 1018.4 |
| 20260906004508 | 66 | 332 | 9.0 | 16.0 | 0.00 | 0.07 | 0.07 | 56 | 1018.5 |
| 20260906003019 | 67 | 338 | 9.0 | 16.0 | 0.00 | 0.07 | 0.07 | 55 | 1018.5 |
| 20260906001512 | 68 | 330 | 14.0 | 18.0 | 0.00 | 0.07 | 0.07 | 52 | 1018.6 |
| 20260906000018 | 70 | 345 | 12.0 | 19.0 | 0.00 | 0.07 | 0.07 | 49 | 1018.6 |